Portada
METAR-TAF:

METAR-TAF

Aeroports :

Batam, Indonèsia

latitud: 01-07-15N, longitud: 104-07-07E, altitud: 38 m

Observació

L'informe es va fer fa 22 minuts, a les 11:00 UTC
Vent 12 kt del Nord/Nord-Est
Temperatura 29°C
Humitat 70%
Pressió 1011 hPa
Visibilitat 10 km o més
Escasses núvols a una alçada de 1400 ft

METAR: WIDD 261100Z 03012KT 9999 FEW014 29/23 Q1011 NOSIG

Hora: 18:22 (11:22 UTC)

Pronòstic

L'informe es va fer fa 6 hores i 22 minuts, a les 05:00 UTC
Pronòstic vàlid del 26 a les 06 UTC al 27 a les 06 UTC
Vent 13 kt del Nord/Nord-Est
Visibilitat 10 km o més
Núvols disperses a una alçada de 1400 ft

TAF: WIDD 260500Z 2606/2706 03013KT 9999 SCT014

Observacions i pronòstics meteorològics de més de 4000 aeroports (METAR i TAF).

Les estacions disponibles són els punts grocs i vermells al mapa.

Posi el ratolí al punt desitjat per veure el nom de l'estació.

Feu clic per veure les observacions i els pronòstics meteorològics.

Per canviar el mapa: feu clic els botons verds amb una creu de color negre per apropar; al botó verd amb un guió per allunyar la imatge; o en les fletxes verdes per a mapes adjacents.


METAR-TAF: